Time;durP1;ratioP1;P1;durP2;ratioP2;P2;SDS_P1;SDS_P2;PMS_P1;PMS_P2;Temp;Humidity;BMP_temperature;BMP_pressure;BME280_temperature;BME280_humidity;BME280_pressure;Samples;Min_cycle;Max_cycle;Signal;HPM_P1;HPM_P2
2023/08/10 00:00:16;;;;;;;5.97;2.38;;;15.20;99.90;;;;;;4967514;28;20039;-59
2023/08/10 00:02:45;;;;;;;9.00;2.03;;;15.50;99.90;;;;;;4967167;28;20050;-59
2023/08/10 00:05:11;;;;;;;8.02;2.00;;;14.70;99.90;;;;;;4961566;28;20039;-59
2023/08/10 00:07:37;;;;;;;8.43;2.08;;;14.90;99.90;;;;;;4970025;28;20034;-59
2023/08/10 00:10:04;;;;;;;4.80;1.60;;;15.50;99.90;;;;;;4969287;28;20031;-59
2023/08/10 00:12:30;;;;;;;7.05;2.40;;;15.00;99.90;;;;;;4970855;28;20050;-58
2023/08/10 00:14:56;;;;;;;7.95;1.95;;;15.20;99.90;;;;;;4963702;28;20039;-58
2023/08/10 00:17:22;;;;;;;6.32;2.47;;;14.50;99.90;;;;;;4971594;28;20349;-59
2023/08/10 00:19:47;;;;;;;10.65;2.17;;;14.30;99.90;;;;;;4970342;28;20038;-59
2023/08/10 00:22:14;;;;;;;8.55;1.77;;;;;;;;;;4968770;28;20039;-59
2023/08/10 00:24:40;;;;;;;5.30;1.40;;;14.60;99.90;;;;;;4963960;28;20126;-59
2023/08/10 00:27:06;;;;;;;5.07;1.70;;;14.80;99.90;;;;;;4963132;28;20113;-59
2023/08/10 00:29:32;;;;;;;5.63;1.95;;;14.60;99.90;;;;;;4971604;28;20105;-59
2023/08/10 00:31:58;;;;;;;8.15;1.92;;;15.20;99.90;;;;;;4969373;28;20441;-59
2023/08/10 00:34:24;;;;;;;6.40;2.28;;;14.50;99.90;;;;;;4970202;28;20070;-59
2023/08/10 00:36:49;;;;;;;5.90;2.00;;;14.40;99.90;;;;;;4971422;28;20508;-59
2023/08/10 00:39:17;;;;;;;8.35;2.00;;;15.10;99.90;;;;;;4970936;28;20584;-59
2023/08/10 00:41:43;;;;;;;5.65;1.95;;;;;;;;;;4972103;28;20053;-59
2023/08/10 00:44:11;;;;;;;5.60;1.90;;;14.70;99.90;;;;;;4962836;28;20501;-59
2023/08/10 00:46:37;;;;;;;7.47;2.10;;;14.60;99.90;;;;;;4967903;28;20042;-59
2023/08/10 00:49:04;;;;;;;6.93;2.10;;;14.00;99.90;;;;;;4954516;28;20086;-59
2023/08/10 00:51:30;;;;;;;8.40;2.60;;;14.70;99.90;;;;;;4969068;28;20045;-59
2023/08/10 00:53:56;;;;;;;7.07;2.20;;;14.40;99.90;;;;;;4959459;28;20046;-59
2023/08/10 00:56:21;;;;;;;9.65;3.10;;;14.20;99.90;;;;;;4966066;28;20092;-59
2023/08/10 00:58:48;;;;;;;6.70;1.92;;;;;;;;;;4969335;28;20129;-59
2023/08/10 01:01:13;;;;;;;7.40;2.00;;;13.90;99.90;;;;;;4969626;28;20042;-59
2023/08/10 01:03:39;;;;;;;6.70;2.05;;;14.50;99.90;;;;;;4962519;28;20477;-59
2023/08/10 01:06:18;;;;;;;5.18;2.13;;;13.60;99.90;;;;;;4968905;28;20057;-59
2023/08/10 01:08:46;;;;;;;6.80;2.00;;;14.20;99.90;;;;;;4968063;28;20065;-59
2023/08/10 01:11:33;;;;;;;8.18;2.33;;;;;;;;;;4962627;28;20468;-59
2023/08/10 01:14:10;;;;;;;8.77;2.72;;;13.70;99.90;;;;;;4967157;28;20043;-59
2023/08/10 01:16:41;;;;;;;6.72;1.88;;;14.20;99.90;;;;;;4967007;28;20074;-59
2023/08/10 01:19:20;;;;;;;6.38;2.30;;;14.10;99.90;;;;;;4968289;28;20775;-59
2023/08/10 01:21:59;;;;;;;6.03;2.20;;;13.90;99.90;;;;;;4967868;28;20039;-59
2023/08/10 01:24:30;;;;;;;6.70;2.10;;;14.30;99.90;;;;;;4963811;28;20034;-59
2023/08/10 01:26:56;;;;;;;8.90;2.20;;;13.50;99.90;;;;;;4960191;28;20077;-59
2023/08/10 01:29:23;;;;;;;7.50;2.05;;;14.30;99.90;;;;;;4967479;28;20202;-59
2023/08/10 01:31:49;;;;;;;7.63;2.00;;;13.30;99.90;;;;;;4964825;28;20043;-59
2023/08/10 01:34:14;;;;;;;7.35;2.25;;;14.30;99.90;;;;;;4962894;28;20425;-59
2023/08/10 01:36:40;;;;;;;6.55;2.20;;;13.30;99.90;;;;;;4966008;28;20053;-59
2023/08/10 01:39:06;;;;;;;7.15;2.15;;;13.90;99.90;;;;;;4969778;28;20551;-59
2023/08/10 01:41:32;;;;;;;6.85;2.38;;;13.80;99.90;;;;;;4969793;28;20093;-59
2023/08/10 01:43:58;;;;;;;8.15;2.30;;;13.50;99.90;;;;;;4965521;28;20046;-59
2023/08/10 01:46:26;;;;;;;7.90;2.20;;;13.50;99.90;;;;;;4966198;28;20425;-59
2023/08/10 01:48:54;;;;;;;6.18;2.05;;;13.70;99.90;;;;;;4966117;28;20408;-59
2023/08/10 01:51:25;;;;;;;7.20;1.95;;;13.20;99.90;;;;;;4969237;28;20039;-59
2023/08/10 01:53:52;;;;;;;6.32;2.03;;;13.70;99.90;;;;;;4966468;28;20078;-59
2023/08/10 01:56:19;;;;;;;7.13;2.50;;;14.10;99.90;;;;;;4956211;28;20484;-58
2023/08/10 01:58:45;;;;;;;8.63;2.10;;;;;;;;;;4961916;28;20107;-59
2023/08/10 02:01:11;;;;;;;6.55;2.10;;;13.70;99.90;;;;;;4961958;28;20129;-58
2023/08/10 02:03:37;;;;;;;6.70;2.03;;;;;;;;;;4964558;28;20625;-57
2023/08/10 02:06:03;;;;;;;11.05;2.72;;;14.00;99.90;;;;;;4964028;28;20074;-59
2023/08/10 02:08:29;;;;;;;8.43;2.30;;;13.60;99.90;;;;;;4969828;28;20117;-57
2023/08/10 02:10:55;;;;;;;5.75;2.10;;;13.30;99.90;;;;;;4944534;28;20530;-59
2023/08/10 02:13:20;;;;;;;5.78;1.95;;;13.30;99.90;;;;;;4949356;28;20412;-59
2023/08/10 02:15:46;;;;;;;6.10;2.20;;;13.60;99.90;;;;;;4968258;28;20039;-59
2023/08/10 02:18:12;;;;;;;8.13;2.28;;;13.50;99.90;;;;;;4966305;28;22387;-59
2023/08/10 02:20:39;;;;;;;10.48;2.30;;;13.70;99.90;;;;;;4968349;28;20618;-60
2023/08/10 02:23:04;;;;;;;5.88;2.28;;;13.80;99.90;;;;;;4963465;28;20507;-59
2023/08/10 02:25:30;;;;;;;7.82;2.38;;;13.80;99.90;;;;;;4968061;28;20117;-59
2023/08/10 02:27:56;;;;;;;6.50;2.30;;;13.60;99.90;;;;;;4967332;28;20123;-60
2023/08/10 02:30:21;;;;;;;5.90;2.33;;;13.80;99.90;;;;;;4967282;28;20047;-59
2023/08/10 02:32:47;;;;;;;7.97;2.75;;;14.20;99.90;;;;;;4968324;28;20416;-59
2023/08/10 02:35:13;;;;;;;7.50;2.00;;;13.80;99.90;;;;;;4966466;28;20042;-59
2023/08/10 02:37:39;;;;;;;8.18;2.17;;;13.90;99.90;;;;;;4969985;28;20390;-59
2023/08/10 02:40:13;;;;;;;8.52;2.90;;;14.30;99.90;;;;;;4968230;28;20046;-59
2023/08/10 02:42:39;;;;;;;12.98;2.67;;;13.70;99.90;;;;;;4961373;28;20053;-59
2023/08/10 02:45:07;;;;;;;7.28;2.30;;;14.50;99.90;;;;;;4970368;28;20050;-59
2023/08/10 02:47:33;;;;;;;6.90;2.15;;;14.60;99.90;;;;;;4967912;28;20400;-59
2023/08/10 02:50:00;;;;;;;5.90;2.40;;;;;;;;;;4970361;28;20042;-59
2023/08/10 02:52:25;;;;;;;7.07;2.47;;;14.10;99.90;;;;;;4970229;28;20066;-59
2023/08/10 02:54:51;;;;;;;7.60;2.63;;;14.00;99.90;;;;;;4964885;28;20073;-59
2023/08/10 02:57:17;;;;;;;6.53;2.70;;;14.20;99.90;;;;;;4967436;28;20050;-59
2023/08/10 02:59:42;;;;;;;7.53;2.40;;;14.20;99.90;;;;;;4967824;28;20043;-59
2023/08/10 03:02:08;;;;;;;8.48;2.17;;;14.10;99.90;;;;;;4968501;28;20199;-59
2023/08/10 03:04:34;;;;;;;10.48;2.22;;;14.20;99.90;;;;;;4972287;28;20038;-59
2023/08/10 03:07:01;;;;;;;6.68;2.33;;;14.50;99.90;;;;;;4969299;28;20143;-59
2023/08/10 03:09:26;;;;;;;15.32;3.08;;;14.20;99.90;;;;;;4970268;28;20043;-60
2023/08/10 03:11:52;;;;;;;6.13;2.55;;;14.10;99.90;;;;;;4972377;28;20039;-59
2023/08/10 03:14:18;;;;;;;5.70;2.20;;;13.90;99.90;;;;;;4966202;28;20532;-60
2023/08/10 03:16:43;;;;;;;6.85;2.17;;;14.10;99.90;;;;;;4965906;28;20039;-59
2023/08/10 03:19:09;;;;;;;6.22;2.35;;;14.20;99.90;;;;;;4985470;28;20410;-58
2023/08/10 03:21:35;;;;;;;7.13;2.58;;;14.70;99.90;;;;;;4968044;28;20039;-59
2023/08/10 03:24:00;;;;;;;8.90;2.70;;;14.70;99.90;;;;;;4960078;28;20043;-59
2023/08/10 03:26:26;;;;;;;7.78;2.45;;;14.10;99.90;;;;;;4973187;28;20046;-59
2023/08/10 03:28:52;;;;;;;8.02;2.53;;;14.00;99.90;;;;;;4966039;28;20050;-58
2023/08/10 03:31:17;;;;;;;5.50;2.20;;;14.30;99.90;;;;;;4954962;28;20046;-59
2023/08/10 03:33:43;;;;;;;8.23;2.63;;;13.90;99.90;;;;;;4961530;28;20042;-59
2023/08/10 03:36:09;;;;;;;7.45;2.20;;;14.50;99.90;;;;;;4955730;28;20037;-59
2023/08/10 03:38:35;;;;;;;10.23;2.47;;;14.80;99.90;;;;;;4966011;28;20158;-59
2023/08/10 03:41:00;;;;;;;7.65;2.55;;;14.60;99.90;;;;;;4964364;28;20031;-59
2023/08/10 03:43:26;;;;;;;9.10;2.70;;;14.70;99.90;;;;;;4969136;28;20516;-60
2023/08/10 03:45:52;;;;;;;8.45;2.92;;;14.30;99.90;;;;;;4969275;28;20463;-59
2023/08/10 03:48:17;;;;;;;8.15;2.67;;;14.40;99.90;;;;;;4957566;28;20123;-59
2023/08/10 03:50:43;;;;;;;14.93;2.97;;;15.00;99.90;;;;;;4964352;28;20093;-59
2023/08/10 03:53:08;;;;;;;9.60;2.72;;;14.90;99.90;;;;;;4969792;28;20046;-59
2023/08/10 03:55:34;;;;;;;10.75;2.60;;;14.80;99.90;;;;;;4960689;28;20042;-59
2023/08/10 03:58:00;;;;;;;7.90;2.75;;;14.30;99.90;;;;;;4966714;28;20453;-59
2023/08/10 04:00:25;;;;;;;7.88;2.88;;;14.60;99.90;;;;;;4969192;28;20027;-59
2023/08/10 04:02:51;;;;;;;9.75;2.80;;;14.40;99.90;;;;;;4970134;28;20089;-59
2023/08/10 04:05:17;;;;;;;5.97;2.10;;;14.40;99.90;;;;;;4956575;28;20058;-59
2023/08/10 04:07:43;;;;;;;5.95;2.33;;;14.30;99.90;;;;;;4955659;28;20340;-60
2023/08/10 04:10:12;;;;;;;8.82;2.97;;;;;;;;;;4965781;28;20161;-64
2023/08/10 04:12:38;;;;;;;10.02;2.90;;;14.80;99.90;;;;;;4959508;28;20417;-59
2023/08/10 04:15:08;;;;;;;7.70;2.90;;;13.90;99.90;;;;;;4966940;28;20035;-60
2023/08/10 04:17:35;;;;;;;6.97;2.92;;;14.30;99.90;;;;;;4956034;28;20046;-60
2023/08/10 04:20:01;;;;;;;7.38;2.90;;;14.70;99.90;;;;;;4965835;28;20318;-60
2023/08/10 04:22:26;;;;;;;12.15;3.75;;;14.30;99.90;;;;;;4969251;28;20481;-60
2023/08/10 04:24:52;;;;;;;7.15;2.72;;;14.40;99.90;;;;;;4968566;28;20041;-60
2023/08/10 04:27:18;;;;;;;8.45;2.75;;;14.00;99.90;;;;;;4967488;28;20034;-60
2023/08/10 04:29:44;;;;;;;6.60;2.67;;;14.30;99.90;;;;;;4966561;28;20031;-60
2023/08/10 04:32:11;;;;;;;7.75;2.63;;;14.40;99.90;;;;;;4967434;28;20062;-60
2023/08/10 04:34:37;;;;;;;7.20;2.45;;;14.60;99.90;;;;;;4970460;28;20093;-59
2023/08/10 04:37:02;;;;;;;6.80;2.60;;;14.50;99.90;;;;;;4967774;28;20035;-59
2023/08/10 04:39:28;;;;;;;9.30;3.85;;;14.50;99.90;;;;;;4964249;28;20030;-59
2023/08/10 04:41:54;;;;;;;5.85;2.40;;;14.80;99.90;;;;;;4960886;28;20036;-58
2023/08/10 04:44:20;;;;;;;5.65;2.55;;;15.10;99.90;;;;;;4962664;28;20704;-59
2023/08/10 04:46:46;;;;;;;7.03;2.90;;;14.20;99.90;;;;;;4967133;28;20381;-60
2023/08/10 04:49:12;;;;;;;8.55;2.83;;;14.60;99.90;;;;;;4966155;28;20042;-60
2023/08/10 04:51:37;;;;;;;12.82;3.95;;;14.80;99.90;;;;;;4960118;28;20086;-60
2023/08/10 04:54:03;;;;;;;5.93;3.10;;;14.50;99.90;;;;;;4965408;28;20045;-60
2023/08/10 04:56:29;;;;;;;9.35;3.30;;;14.70;99.90;;;;;;4961935;28;20136;-58
2023/08/10 04:58:54;;;;;;;7.65;3.25;;;14.50;99.90;;;;;;4959666;28;20042;-59
2023/08/10 05:01:20;;;;;;;5.78;3.03;;;14.70;99.90;;;;;;4959050;28;20126;-59
2023/08/10 05:03:46;;;;;;;6.57;3.03;;;14.80;99.90;;;;;;4966295;28;20038;-59
2023/08/10 05:06:12;;;;;;;6.85;2.70;;;14.30;99.90;;;;;;4967301;28;20081;-59
2023/08/10 05:08:38;;;;;;;7.25;3.30;;;14.40;99.90;;;;;;4969152;28;20039;-59
2023/08/10 05:11:04;;;;;;;7.53;2.92;;;14.60;99.90;;;;;;4967104;28;20125;-59
2023/08/10 05:13:29;;;;;;;7.70;3.30;;;14.20;99.90;;;;;;4969436;28;20133;-59
2023/08/10 05:15:55;;;;;;;8.57;3.58;;;14.50;99.90;;;;;;4970573;28;20066;-59
2023/08/10 05:18:22;;;;;;;5.85;3.30;;;14.90;99.90;;;;;;4969197;28;20377;-59
2023/08/10 05:20:49;;;;;;;6.85;3.10;;;14.40;99.90;;;;;;4968835;28;20046;-59
2023/08/10 05:23:15;;;;;;;7.38;3.67;;;14.90;99.90;;;;;;4966454;28;20046;-59
2023/08/10 05:25:41;;;;;;;6.90;3.70;;;15.00;99.90;;;;;;4961682;28;20046;-58
2023/08/10 05:28:07;;;;;;;7.32;3.60;;;14.60;99.90;;;;;;4958197;28;20082;-59
2023/08/10 05:30:33;;;;;;;7.50;4.22;;;14.20;99.90;;;;;;4953752;28;20531;-59
2023/08/10 05:32:59;;;;;;;7.28;3.58;;;15.00;99.90;;;;;;4963224;28;20126;-59
2023/08/10 05:35:25;;;;;;;7.93;3.53;;;14.60;99.90;;;;;;4959981;28;20058;-59
2023/08/10 05:37:50;;;;;;;6.32;3.15;;;14.80;99.90;;;;;;4954213;28;20051;-59
2023/08/10 05:40:16;;;;;;;7.88;2.88;;;14.30;1.00;;;;;;4954017;28;20090;-59
2023/08/10 05:42:42;;;;;;;6.78;3.65;;;14.60;1.00;;;;;;4965146;28;20039;-59
2023/08/10 05:45:09;;;;;;;6.65;3.63;;;14.80;1.00;;;;;;4961854;28;20054;-59
2023/08/10 05:47:36;;;;;;;6.80;3.83;;;14.80;1.00;;;;;;4966898;28;20038;-59
2023/08/10 05:50:05;;;;;;;8.02;4.30;;;15.30;1.00;;;;;;4970591;28;20158;-58
2023/08/10 05:52:30;;;;;;;8.48;3.67;;;14.70;1.00;;;;;;4966597;28;20062;-59
2023/08/10 05:54:56;;;;;;;10.45;4.47;;;15.70;1.00;;;;;;4961379;28;20137;-59
2023/08/10 05:57:22;;;;;;;7.32;3.65;;;15.40;1.00;;;;;;4966795;28;20054;-59
2023/08/10 05:59:47;;;;;;;7.97;4.55;;;15.30;1.00;;;;;;4967623;28;20035;-59
2023/08/10 06:02:13;;;;;;;8.65;4.05;;;14.80;1.00;;;;;;4965128;28;20069;-59
2023/08/10 06:04:41;;;;;;;7.38;4.35;;;15.00;1.00;;;;;;4961174;28;20045;-59
2023/08/10 06:07:07;;;;;;;7.65;4.22;;;15.30;1.00;;;;;;4954694;28;20312;-59
2023/08/10 06:09:33;;;;;;;8.27;4.10;;;15.70;99.90;;;;;;4966571;28;20712;-59
2023/08/10 06:12:00;;;;;;;8.38;3.45;;;15.40;99.90;;;;;;4959249;28;20047;-59
2023/08/10 06:14:27;;;;;;;8.23;3.30;;;16.00;99.90;;;;;;4962316;28;20077;-59
2023/08/10 06:16:52;;;;;;;10.05;3.67;;;15.80;99.90;;;;;;4965833;28;20046;-59
2023/08/10 06:19:18;;;;;;;10.50;3.92;;;16.20;99.90;;;;;;4969711;28;20416;-59
2023/08/10 06:21:44;;;;;;;10.88;3.60;;;16.10;99.90;;;;;;4970076;28;20039;-59
2023/08/10 06:24:09;;;;;;;7.68;3.63;;;16.10;99.90;;;;;;4964942;28;20071;-59
2023/08/10 06:26:36;;;;;;;16.25;3.95;;;16.60;99.90;;;;;;4952951;28;20078;-57
2023/08/10 06:29:03;;;;;;;8.55;3.58;;;16.80;99.90;;;;;;4956842;28;20030;-58
2023/08/10 06:31:29;;;;;;;7.03;2.63;;;17.00;99.90;;;;;;4966812;28;20050;-59
2023/08/10 06:33:54;;;;;;;9.63;2.22;;;16.80;99.90;;;;;;4963298;28;20039;-59
2023/08/10 06:36:21;;;;;;;7.72;2.80;;;16.70;99.90;;;;;;4955281;28;20045;-62
2023/08/10 06:38:47;;;;;;;7.68;2.00;;;17.20;99.90;;;;;;4969320;28;20051;-59
2023/08/10 06:41:13;;;;;;;7.50;2.50;;;17.20;99.90;;;;;;4960829;28;20030;-60
2023/08/10 06:43:38;;;;;;;6.72;2.63;;;16.50;99.90;;;;;;4962722;28;20472;-60
2023/08/10 06:46:04;;;;;;;6.95;2.33;;;16.60;99.90;;;;;;4967514;28;20460;-60
2023/08/10 06:48:29;;;;;;;9.27;2.92;;;16.70;99.90;;;;;;4961441;28;20134;-60
2023/08/10 06:50:55;;;;;;;5.97;2.72;;;16.70;99.90;;;;;;4964410;28;20405;-60
2023/08/10 06:53:21;;;;;;;6.20;2.50;;;16.60;99.90;;;;;;4961069;28;20086;-60
2023/08/10 06:55:47;;;;;;;9.27;3.03;;;17.10;99.90;;;;;;4965999;28;20106;-60
2023/08/10 06:58:13;;;;;;;6.28;2.28;;;16.60;99.90;;;;;;4961216;28;20051;-60
2023/08/10 07:00:39;;;;;;;8.65;2.50;;;17.10;99.90;;;;;;4957836;28;20485;-60
2023/08/10 07:03:06;;;;;;;5.57;2.13;;;17.00;99.90;;;;;;4968023;28;20046;-60
2023/08/10 07:05:37;;;;;;;6.72;2.10;;;17.10;99.90;;;;;;4962031;28;20054;-60
2023/08/10 07:08:04;;;;;;;6.93;2.28;;;16.80;99.90;;;;;;4966208;28;20042;-60
2023/08/10 07:10:30;;;;;;;8.10;1.83;;;17.20;99.90;;;;;;4959762;28;20042;-60
2023/08/10 07:12:55;;;;;;;8.52;1.90;;;16.60;99.90;;;;;;4961938;28;20039;-60
2023/08/10 07:15:21;;;;;;;7.55;2.15;;;16.60;99.90;;;;;;4963416;28;20038;-60
2023/08/10 07:17:47;;;;;;;7.82;2.30;;;17.40;99.90;;;;;;4953254;28;20039;-60
2023/08/10 07:20:13;;;;;;;5.80;2.20;;;16.90;99.90;;;;;;4960724;28;20525;-60
2023/08/10 07:22:39;;;;;;;5.53;2.10;;;17.70;99.90;;;;;;4966376;28;20441;-60
2023/08/10 07:25:05;;;;;;;6.85;2.10;;;17.50;99.90;;;;;;4971450;28;20034;-60
2023/08/10 07:27:33;;;;;;;9.35;1.92;;;17.80;86.80;;;;;;4970781;28;20523;-60
2023/08/10 07:29:59;;;;;;;5.43;2.38;;;17.70;55.80;;;;;;4973003;28;20489;-60
2023/08/10 07:32:26;;;;;;;8.23;2.10;;;18.00;63.60;;;;;;4972170;28;20038;-60
2023/08/10 07:34:52;;;;;;;8.07;2.47;;;18.00;70.70;;;;;;4968180;28;20489;-60
2023/08/10 07:37:17;;;;;;;6.75;2.30;;;17.40;75.40;;;;;;4964747;28;20154;-60
2023/08/10 07:39:43;;;;;;;6.20;1.67;;;17.80;84.90;;;;;;4964459;28;20039;-60
2023/08/10 07:42:09;;;;;;;4.22;1.48;;;18.30;10.40;;;;;;4973345;28;20489;-60
2023/08/10 07:44:34;;;;;;;5.53;1.48;;;17.40;1.00;;;;;;4955126;28;20515;-60
2023/08/10 07:47:00;;;;;;;7.63;1.88;;;18.30;1.00;;;;;;4972645;28;20039;-60
2023/08/10 07:49:26;;;;;;;5.95;1.48;;;17.70;1.00;;;;;;4964093;28;20507;-60
2023/08/10 07:51:51;;;;;;;5.70;1.50;;;17.70;1.00;;;;;;4973384;28;20038;-59
2023/08/10 07:54:17;;;;;;;7.13;1.98;;;18.40;1.00;;;;;;4972365;28;20065;-59
2023/08/10 07:56:43;;;;;;;5.03;1.50;;;18.30;1.00;;;;;;4969965;28;20117;-59
2023/08/10 07:59:09;;;;;;;6.05;1.40;;;18.60;1.00;;;;;;4960476;28;20039;-59
2023/08/10 08:01:34;;;;;;;6.03;1.48;;;17.90;1.00;;;;;;4964259;28;20588;-59
2023/08/10 08:04:00;;;;;;;6.28;1.60;;;18.00;1.00;;;;;;4968566;28;20176;-59
2023/08/10 08:06:26;;;;;;;5.70;1.40;;;17.70;1.00;;;;;;4960560;28;20110;-59
2023/08/10 08:08:52;;;;;;;5.45;1.65;;;17.80;1.00;;;;;;4961105;28;20043;-59
2023/08/10 08:11:17;;;;;;;6.32;2.25;;;18.30;1.00;;;;;;4968314;28;20415;-59
2023/08/10 08:13:43;;;;;;;7.60;1.67;;;18.20;1.00;;;;;;4963764;28;20048;-59
2023/08/10 08:16:10;;;;;;;6.35;1.90;;;17.90;1.00;;;;;;4970047;28;20378;-62
2023/08/10 08:18:47;;;;;;;5.32;1.50;;;18.10;1.00;;;;;;4969577;28;20070;-59
2023/08/10 08:21:23;;;;;;;9.18;1.70;;;17.90;1.00;;;;;;4961477;28;20030;-59
2023/08/10 08:23:50;;;;;;;6.88;1.80;;;18.70;1.00;;;;;;4967096;28;20137;-59
2023/08/10 08:26:18;;;;;;;5.32;1.48;;;18.50;1.00;;;;;;4968159;28;20089;-59
2023/08/10 08:28:45;;;;;;;6.70;1.58;;;18.10;1.00;;;;;;4961106;28;20039;-59
2023/08/10 08:31:11;;;;;;;4.47;1.58;;;18.60;1.00;;;;;;4972710;28;20141;-60
2023/08/10 08:33:37;;;;;;;5.97;1.25;;;19.30;1.00;;;;;;4960068;28;20073;-60
2023/08/10 08:36:03;;;;;;;6.20;1.65;;;17.80;1.00;;;;;;4961705;28;20053;-60
2023/08/10 08:38:32;;;;;;;12.48;1.77;;;17.80;1.00;;;;;;4968875;28;20035;-60
2023/08/10 08:41:03;;;;;;;6.13;1.70;;;18.40;1.00;;;;;;4943893;28;20085;-60
2023/08/10 08:43:29;;;;;;;7.72;1.92;;;17.40;1.00;;;;;;4964042;28;20105;-60
2023/08/10 08:45:57;;;;;;;4.82;1.45;;;17.90;1.00;;;;;;4961044;28;20505;-60
2023/08/10 08:48:25;;;;;;;5.20;1.50;;;18.30;1.00;;;;;;4966662;28;20046;-59
2023/08/10 08:50:51;;;;;;;7.15;1.70;;;17.90;1.00;;;;;;4968479;28;20488;-60
2023/08/10 08:53:17;;;;;;;6.07;1.65;;;18.70;1.00;;;;;;4964916;28;20129;-59
2023/08/10 08:55:43;;;;;;;6.50;1.50;;;18.60;1.00;;;;;;4966549;28;20085;-59
2023/08/10 08:58:08;;;;;;;5.20;1.30;;;18.50;99.90;;;;;;4959804;28;20082;-59
2023/08/10 09:00:35;;;;;;;5.07;1.50;;;17.80;1.00;;;;;;4966506;28;20038;-59
2023/08/10 09:03:01;;;;;;;5.70;1.63;;;18.40;1.00;;;;;;4970122;28;20412;-60
2023/08/10 09:05:29;;;;;;;7.30;2.17;;;17.80;1.00;;;;;;4972086;28;20038;-60
2023/08/10 09:07:55;;;;;;;7.18;1.80;;;18.70;1.00;;;;;;4960359;28;20034;-60
2023/08/10 09:10:21;;;;;;;9.77;1.58;;;18.20;1.00;;;;;;4962276;28;20042;-60
2023/08/10 09:12:48;;;;;;;6.25;1.92;;;19.10;1.00;;;;;;4960206;28;20058;-60
2023/08/10 09:15:16;;;;;;;4.80;1.30;;;18.20;1.00;;;;;;4971307;28;20307;-60
2023/08/10 09:17:51;;;;;;;7.00;1.90;;;19.20;1.00;;;;;;4954904;28;20051;-60
2023/08/10 09:20:25;;;;;;;8.35;1.88;;;18.60;1.00;;;;;;4970619;28;20170;-60
2023/08/10 09:22:53;;;;;;;6.05;1.58;;;19.50;1.00;;;;;;4959807;28;20130;-60
2023/08/10 09:25:20;;;;;;;5.55;1.52;;;19.30;1.00;;;;;;4970347;28;20035;-60
2023/08/10 09:27:47;;;;;;;5.80;1.90;;;18.90;99.90;;;;;;4967636;28;20038;-60
2023/08/10 09:30:14;;;;;;;4.80;1.50;;;19.30;99.90;;;;;;4955943;28;20050;-60
2023/08/10 09:32:40;;;;;;;5.43;1.85;;;19.00;99.90;;;;;;4966618;28;20039;-60
2023/08/10 09:35:12;;;;;;;6.70;1.70;;;19.70;99.90;;;;;;4959367;28;20038;-60
2023/08/10 09:37:37;;;;;;;6.35;1.50;;;19.70;99.90;;;;;;4963132;28;20030;-59
2023/08/10 09:40:08;;;;;;;4.80;1.40;;;19.50;99.90;;;;;;4968797;28;20552;-60
2023/08/10 09:42:34;;;;;;;12.23;1.90;;;19.30;99.90;;;;;;4955698;28;20598;-60
2023/08/10 09:45:05;;;;;;;4.60;1.50;;;19.60;99.90;;;;;;4953981;28;20130;-59
2023/08/10 09:47:37;;;;;;;6.35;1.48;;;20.30;99.90;;;;;;4966341;28;20049;-60
2023/08/10 09:50:07;;;;;;;4.18;1.60;;;19.70;99.90;;;;;;4962940;28;20031;-60
2023/08/10 09:52:36;;;;;;;6.28;1.50;;;19.50;99.90;;;;;;4967401;28;20041;-60
2023/08/10 09:55:04;;;;;;;6.78;1.98;;;19.70;99.90;;;;;;4959736;28;20041;-60
2023/08/10 09:57:30;;;;;;;7.20;1.85;;;20.10;99.90;;;;;;4963117;28;20118;-60
2023/08/10 09:59:56;;;;;;;6.55;2.20;;;19.60;99.90;;;;;;4967857;28;20042;-60
2023/08/10 10:02:23;;;;;;;4.97;1.73;;;19.80;99.90;;;;;;4963470;28;20501;-60
2023/08/10 10:04:50;;;;;;;5.70;1.70;;;20.00;99.90;;;;;;4966759;28;20125;-60
2023/08/10 10:07:23;;;;;;;7.03;1.77;;;20.00;99.90;;;;;;4963254;28;20039;-60
2023/08/10 10:09:50;;;;;;;5.13;1.70;;;20.10;99.90;;;;;;4960812;28;20062;-60
2023/08/10 10:12:16;;;;;;;5.18;1.50;;;20.20;99.90;;;;;;4965506;28;20043;-60
2023/08/10 10:14:44;;;;;;;5.32;2.05;;;20.80;99.90;;;;;;4968591;28;20042;-60
2023/08/10 10:17:11;;;;;;;6.53;1.70;;;21.50;99.90;;;;;;4966479;28;20035;-60
2023/08/10 10:19:41;;;;;;;4.95;1.80;;;21.60;99.90;;;;;;4966405;28;20046;-60
2023/08/10 10:22:07;;;;;;;7.03;2.35;;;22.00;99.90;;;;;;4950824;28;20031;-60
2023/08/10 10:24:34;;;;;;;5.70;2.40;;;21.50;89.70;;;;;;4965460;28;20053;-60
2023/08/10 10:27:11;;;;;;;5.00;1.88;;;22.00;1.00;;;;;;4967469;28;21222;-60
2023/08/10 10:29:49;;;;;;;8.65;2.50;;;21.30;1.00;;;;;;4960663;28;20062;-60
2023/08/10 10:32:18;;;;;;;7.15;2.25;;;21.30;99.90;;;;;;4957881;28;20035;-60
2023/08/10 10:34:44;;;;;;;6.85;2.30;;;21.30;1.00;;;;;;4961722;28;20038;-60
2023/08/10 10:37:38;;;;;;;6.22;2.10;;;21.30;1.00;;;;;;4979874;28;20086;-59
2023/08/10 10:40:15;;;;;;;5.00;1.83;;;20.50;1.00;;;;;;4966322;28;20097;-60
2023/08/10 10:43:03;;;;;;;7.20;2.10;;;20.60;11.10;;;;;;4962203;28;20110;-60
2023/08/10 10:45:39;;;;;;;8.50;2.45;;;20.40;16.40;;;;;;4967981;28;20497;-60
2023/08/10 10:48:06;;;;;;;6.82;2.15;;;20.30;1.00;;;;;;4961934;28;20034;-59
2023/08/10 10:50:33;;;;;;;6.05;2.33;;;20.40;1.00;;;;;;4954962;28;20089;-60
2023/08/10 10:53:01;;;;;;;6.43;2.38;;;21.30;1.00;;;;;;4959950;28;20058;-60
2023/08/10 10:55:35;;;;;;;6.40;2.30;;;20.50;1.00;;;;;;4957883;28;20037;-60
2023/08/10 10:58:06;;;;;;;5.85;2.30;;;20.90;1.00;;;;;;4970504;28;20421;-60
2023/08/10 11:00:34;;;;;;;6.82;2.60;;;21.10;1.00;;;;;;4973668;28;20064;-60
2023/08/10 11:03:02;;;;;;;7.28;2.90;;;21.00;1.00;;;;;;4973282;28;20039;-60
2023/08/10 11:05:28;;;;;;;5.55;2.50;;;21.30;1.00;;;;;;4964231;28;20073;-58
2023/08/10 11:07:55;;;;;;;6.90;2.47;;;21.20;1.00;;;;;;4973243;28;20070;-60
2023/08/10 11:10:21;;;;;;;7.70;2.40;;;20.40;1.00;;;;;;4967676;28;20043;-59
2023/08/10 11:12:48;;;;;;;7.85;2.90;;;20.60;1.00;;;;;;4960515;28;20559;-59
2023/08/10 11:15:16;;;;;;;8.48;2.60;;;20.50;1.00;;;;;;4966466;28;20074;-60
2023/08/10 11:17:46;;;;;;;6.97;2.80;;;20.40;4.20;;;;;;4961235;28;20050;-59
2023/08/10 11:20:15;;;;;;;4.90;2.00;;;20.10;75.20;;;;;;4969766;28;20043;-60
2023/08/10 11:22:48;;;;;;;7.07;2.50;;;19.80;99.90;;;;;;4956324;28;20051;-59
2023/08/10 11:25:18;;;;;;;5.03;1.90;;;19.80;99.90;;;;;;4968131;28;20035;-59
2023/08/10 11:27:48;;;;;;;7.95;2.20;;;20.00;99.90;;;;;;4956366;28;20094;-60
2023/08/10 11:30:18;;;;;;;9.10;2.83;;;19.80;99.90;;;;;;4979387;28;20462;-60
2023/08/10 11:32:47;;;;;;;6.55;2.78;;;20.00;99.90;;;;;;4972877;28;20070;-60
2023/08/10 11:35:16;;;;;;;5.38;2.40;;;20.00;99.90;;;;;;4962286;28;20036;-60
2023/08/10 11:37:42;;;;;;;9.90;2.58;;;19.90;99.90;;;;;;4969160;28;20062;-60
2023/08/10 11:40:16;;;;;;;9.43;3.50;;;19.80;99.90;;;;;;4964501;28;20118;-60
2023/08/10 11:42:43;;;;;;;;;;;19.70;99.90;;;;;;4966233;28;20051;-60
2023/08/10 11:45:11;;;;;;;9.25;3.50;;;19.40;99.90;;;;;;4965700;28;20451;-60
2023/08/10 11:47:45;;;;;;;6.47;2.97;;;19.80;99.90;;;;;;4961046;28;20050;-60
2023/08/10 11:50:13;;;;;;;;;;;19.40;99.90;;;;;;4967833;28;20047;-60
2023/08/10 11:52:40;;;;;;;5.70;3.05;;;19.70;99.90;;;;;;4956660;28;20378;-60
2023/08/10 11:55:16;;;;;;;8.93;2.92;;;19.10;99.90;;;;;;4971321;28;20038;-60
2023/08/10 11:57:51;;;;;;;8.02;2.85;;;19.70;99.90;;;;;;4963909;28;20358;-60
2023/08/10 12:00:23;;;;;;;8.38;3.30;;;19.40;99.90;;;;;;4984437;28;20054;-60
2023/08/10 12:03:12;;;;;;;8.43;3.63;;;19.60;99.90;;;;;;4966433;28;20046;-60
2023/08/10 12:05:49;;;;;;;8.75;3.17;;;19.90;99.90;;;;;;4971336;28;20050;-60
2023/08/10 12:08:36;;;;;;;6.25;2.70;;;20.30;99.90;;;;;;4951542;28;20504;-60
2023/08/10 12:11:11;;;;;;;10.10;3.20;;;19.80;1.00;;;;;;4965267;28;20053;-59
2023/08/10 12:13:47;;;;;;;7.03;3.40;;;19.50;1.00;;;;;;4961361;28;20433;-60
2023/08/10 12:16:15;;;;;;;8.43;3.95;;;19.90;1.00;;;;;;4967704;28;20035;-59
2023/08/10 12:18:40;;;;;;;7.45;2.70;;;20.40;1.00;;;;;;4965316;28;20043;-60
2023/08/10 12:21:06;;;;;;;12.27;3.88;;;19.80;1.00;;;;;;4974834;28;20030;-60
2023/08/10 12:23:32;;;;;;;6.95;3.63;;;19.40;1.00;;;;;;4968510;28;20117;-60
2023/08/10 12:25:58;;;;;;;9.35;3.42;;;20.20;1.00;;;;;;4955552;28;20416;-60
2023/08/10 12:28:25;;;;;;;8.10;3.45;;;20.00;1.00;;;;;;4969344;28;20042;-60
2023/08/10 12:30:51;;;;;;;6.55;3.30;;;20.40;1.00;;;;;;4971631;28;20054;-60
2023/08/10 12:33:19;;;;;;;6.53;3.90;;;20.60;1.00;;;;;;4966181;28;20069;-60
2023/08/10 12:35:45;;;;;;;7.55;3.88;;;20.40;1.00;;;;;;4963543;28;20049;-60
2023/08/10 12:38:10;;;;;;;6.70;3.30;;;20.70;1.00;;;;;;4962505;28;20030;-60
2023/08/10 12:40:37;;;;;;;6.05;3.33;;;21.30;1.00;;;;;;4962690;28;20062;-60
2023/08/10 12:43:03;;;;;;;9.38;3.60;;;21.60;99.90;;;;;;4968977;28;20071;-60
2023/08/10 12:45:29;;;;;;;8.43;3.53;;;21.60;99.90;;;;;;4971825;28;20044;-60
2023/08/10 12:47:55;;;;;;;7.85;3.45;;;22.00;99.90;;;;;;4971077;28;20046;-60
2023/08/10 12:50:23;;;;;;;8.57;3.72;;;22.40;99.90;;;;;;4958585;28;20043;-60
2023/08/10 12:52:49;;;;;;;7.13;4.05;;;22.40;99.90;;;;;;4955149;28;20039;-60